Time;durP1;ratioP1;P1;durP2;ratioP2;P2;SDS_P1;SDS_P2;PMS_P1;PMS_P2;Temp;Humidity;BMP_temperature;BMP_pressure;BME280_temperature;BME280_humidity;BME280_pressure;Samples;Min_cycle;Max_cycle;Signal;HPM_P1;HPM_P2
2021/01/31 09:39:40;;;;;;;8.30;4.63;;;19.90;40.10;;;;;;10572464;27;20469;-28
2021/01/31 09:45:06;;;;;;;9.17;4.63;;;20.00;41.70;;;;;;10566325;28;20555;-28
2021/01/31 09:50:28;;;;;;;22.63;9.07;;;20.40;41.90;;;;;;10572055;28;20184;-28
2021/01/31 09:55:50;;;;;;;17.53;11.10;;;19.80;34.60;;;;;;10570768;28;20215;-28
2021/01/31 10:01:22;;;;;;;16.13;11.60;;;19.40;30.20;;;;;;10568314;28;20412;-27
2021/01/31 10:06:45;;;;;;;15.90;7.20;;;19.20;33.80;;;;;;10570988;28;20215;-27
2021/01/31 10:12:28;;;;;;;16.20;6.20;;;19.50;39.10;;;;;;10570205;28;20247;-28
2021/01/31 10:17:49;;;;;;;10.17;5.50;;;19.60;39.70;;;;;;10571009;28;20225;-28
2021/01/31 10:23:13;;;;;;;7.93;5.20;;;19.60;40.30;;;;;;10561472;28;20676;-28
2021/01/31 10:28:38;;;;;;;6.67;5.10;;;19.60;40.70;;;;;;10569510;28;20183;-28
2021/01/31 10:34:03;;;;;;;7.57;4.70;;;19.60;41.00;;;;;;10568339;28;20219;-27
2021/01/31 10:39:26;;;;;;;7.37;4.43;;;19.60;41.20;;;;;;10569155;28;20681;-29
2021/01/31 10:44:48;;;;;;;5.13;4.23;;;19.70;41.40;;;;;;10565385;28;20689;-28
2021/01/31 10:50:12;;;;;;;7.07;4.37;;;19.70;41.60;;;;;;10533003;28;20191;-28
2021/01/31 10:55:33;;;;;;;5.83;4.10;;;19.70;41.80;;;;;;10540816;28;20655;-29
2021/01/31 11:00:56;;;;;;;5.33;4.10;;;19.70;41.90;;;;;;10540320;28;20256;-28
2021/01/31 11:06:20;;;;;;;6.27;3.87;;;19.70;42.00;;;;;;10540323;28;20208;-28
2021/01/31 11:11:42;;;;;;;4.17;3.60;;;19.70;42.10;;;;;;10539934;28;20195;-28
2021/01/31 11:17:04;;;;;;;5.80;3.67;;;19.70;42.20;;;;;;10539883;28;20216;-28
2021/01/31 11:22:26;;;;;;;4.57;3.37;;;19.70;42.40;;;;;;10536171;28;20204;-27
2021/01/31 11:27:48;;;;;;;5.77;3.50;;;19.60;42.40;;;;;;10530913;28;20632;-28
2021/01/31 11:33:10;;;;;;;4.30;3.47;;;19.70;42.50;;;;;;10497521;28;20188;-28
2021/01/31 11:38:32;;;;;;;3.97;3.57;;;19.70;42.60;;;;;;10496309;28;20216;-27
2021/01/31 11:43:54;;;;;;;4.37;3.60;;;19.70;42.60;;;;;;10497093;28;20699;-29
2021/01/31 11:49:16;;;;;;;3.27;2.97;;;19.70;42.60;;;;;;10496575;28;20192;-28
2021/01/31 11:54:38;;;;;;;3.37;3.07;;;19.70;42.70;;;;;;10495900;28;20212;-28
2021/01/31 11:59:59;;;;;;;3.63;3.33;;;19.60;42.80;;;;;;10495168;28;20192;-27
2021/01/31 12:05:23;;;;;;;5.47;3.00;;;19.70;42.80;;;;;;10496162;28;20212;-28
2021/01/31 12:10:45;;;;;;;4.23;3.30;;;19.70;42.90;;;;;;10495313;28;20192;-27
2021/01/31 12:16:07;;;;;;;4.03;2.80;;;19.70;42.90;;;;;;10495325;28;20216;-27
2021/01/31 12:21:29;;;;;;;4.00;3.10;;;19.70;43.00;;;;;;10495178;28;20567;-28
2021/01/31 12:26:52;;;;;;;4.03;3.57;;;19.70;43.00;;;;;;10524254;28;20260;-28
2021/01/31 12:32:13;;;;;;;4.80;3.57;;;19.70;43.00;;;;;;10536786;28;20196;-28
2021/01/31 12:37:36;;;;;;;4.70;3.83;;;19.70;43.10;;;;;;10536266;28;20219;-28
2021/01/31 12:42:58;;;;;;;3.90;3.50;;;19.60;43.10;;;;;;10535873;28;20192;-28
2021/01/31 12:48:19;;;;;;;3.97;3.57;;;19.70;43.10;;;;;;10536315;28;20192;-28
2021/01/31 12:53:42;;;;;;;4.20;3.37;;;19.70;43.20;;;;;;10533367;28;20281;-27
2021/01/31 12:59:03;;;;;;;3.37;3.07;;;19.70;43.10;;;;;;10535702;28;20218;-28
2021/01/31 13:04:25;;;;;;;4.23;3.27;;;19.60;43.30;;;;;;10535813;28;20215;-28
2021/01/31 13:09:48;;;;;;;3.70;3.07;;;19.70;43.40;;;;;;10535175;28;20195;-28
2021/01/31 13:15:11;;;;;;;4.07;3.10;;;19.60;43.40;;;;;;10534800;28;20223;-28
2021/01/31 13:20:32;;;;;;;3.37;2.97;;;19.60;43.40;;;;;;10534967;28;20246;-28
2021/01/31 13:25:55;;;;;;;3.60;3.23;;;19.70;43.40;;;;;;10528089;28;20214;-29
2021/01/31 13:31:16;;;;;;;3.50;3.20;;;19.70;43.40;;;;;;10534220;28;20222;-28
2021/01/31 13:36:38;;;;;;;4.77;2.90;;;19.70;43.40;;;;;;10534681;28;20219;-28
2021/01/31 13:42:00;;;;;;;4.63;3.27;;;19.70;43.40;;;;;;10534744;28;20195;-28
2021/01/31 13:47:22;;;;;;;2.90;2.57;;;19.70;43.50;;;;;;10534599;28;20207;-28
2021/01/31 13:52:43;;;;;;;3.43;2.70;;;19.60;43.70;;;;;;10534446;28;20188;-28
2021/01/31 13:58:06;;;;;;;3.30;2.87;;;19.60;43.90;;;;;;10525048;28;20228;-28
2021/01/31 14:03:27;;;;;;;2.77;2.40;;;19.60;43.90;;;;;;10492275;28;20208;-28
2021/01/31 14:08:49;;;;;;;3.20;2.90;;;19.60;44.10;;;;;;10493738;28;20188;-29
2021/01/31 14:14:11;;;;;;;2.87;2.57;;;19.60;44.10;;;;;;10533813;28;20699;-28
2021/01/31 14:19:33;;;;;;;3.53;2.70;;;20.00;43.60;;;;;;10533928;28;20266;-28
2021/01/31 14:24:55;;;;;;;3.20;2.60;;;20.20;43.50;;;;;;10531540;28;20219;-28
2021/01/31 14:30:19;;;;;;;4.13;2.60;;;20.30;43.40;;;;;;10541626;28;20199;-28
2021/01/31 14:35:41;;;;;;;3.03;2.47;;;20.40;43.30;;;;;;10532898;28;20226;-28
2021/01/31 14:41:02;;;;;;;2.77;2.10;;;20.50;43.10;;;;;;10540747;28;20196;-27
2021/01/31 14:46:25;;;;;;;2.50;2.30;;;20.50;43.00;;;;;;10540798;28;20211;-29
2021/01/31 14:51:46;;;;;;;2.60;2.40;;;20.60;43.00;;;;;;10538309;28;20199;-28
2021/01/31 14:57:08;;;;;;;3.43;2.33;;;20.50;43.30;;;;;;10500084;28;20218;-28
2021/01/31 15:02:31;;;;;;;2.23;2.00;;;20.50;43.40;;;;;;10536884;28;20636;-28
2021/01/31 15:07:53;;;;;;;3.27;2.30;;;20.40;43.40;;;;;;10499129;28;20216;-28
2021/01/31 15:13:15;;;;;;;3.47;2.20;;;20.70;43.20;;;;;;10498101;28;20258;-28
2021/01/31 15:18:37;;;;;;;3.03;2.10;;;20.90;42.90;;;;;;10412002;28;20240;-29
2021/01/31 15:23:59;;;;;;;2.43;2.17;;;20.90;42.70;;;;;;10430725;28;20221;-29
2021/01/31 15:29:21;;;;;;;6.83;2.27;;;21.00;42.60;;;;;;10455816;28;20243;-28
2021/01/31 15:34:43;;;;;;;2.47;1.97;;;21.10;42.60;;;;;;10455527;28;20853;-29
2021/01/31 15:40:07;;;;;;;5.80;2.00;;;21.20;43.00;;;;;;10454534;28;20233;-29
2021/01/31 15:45:29;;;;;;;2.40;1.57;;;21.20;42.40;;;;;;10455723;28;20217;-28
2021/01/31 15:50:52;;;;;;;3.23;2.07;;;21.20;42.40;;;;;;10459788;28;20255;-29
2021/01/31 15:56:14;;;;;;;2.43;1.90;;;21.40;42.30;;;;;;10454941;28;20217;-28
2021/01/31 16:01:36;;;;;;;3.70;2.07;;;21.40;42.10;;;;;;10454382;28;20606;-28
2021/01/31 16:06:58;;;;;;;2.33;1.87;;;21.40;42.10;;;;;;10453242;28;20212;-28
2021/01/31 16:12:20;;;;;;;2.87;2.43;;;21.00;43.00;;;;;;10438018;28;20189;-28
2021/01/31 16:17:42;;;;;;;3.80;2.23;;;20.70;43.50;;;;;;10447641;28;20229;-27
2021/01/31 16:23:05;;;;;;;3.13;2.70;;;20.90;43.50;;;;;;10452588;28;20215;-28
2021/01/31 16:28:26;;;;;;;3.10;2.43;;;21.10;42.70;;;;;;10451522;28;20553;-27
2021/01/31 16:33:48;;;;;;;3.10;2.80;;;21.00;42.80;;;;;;10451555;28;20696;-28
2021/01/31 16:39:12;;;;;;;3.07;2.77;;;20.90;42.90;;;;;;10424964;28;20308;-27
2021/01/31 16:44:34;;;;;;;3.30;2.87;;;20.90;43.00;;;;;;10412137;28;20268;-28
2021/01/31 16:49:56;;;;;;;3.97;3.03;;;20.90;43.10;;;;;;10413148;28;20189;-27
2021/01/31 16:55:19;;;;;;;3.40;2.60;;;20.80;43.50;;;;;;10453160;28;20217;-28
2021/01/31 17:00:41;;;;;;;3.13;2.47;;;20.90;43.00;;;;;;10453463;28;20197;-28
2021/01/31 17:06:03;;;;;;;2.97;2.67;;;20.80;43.00;;;;;;10447456;28;20703;-28
2021/01/31 17:11:25;;;;;;;4.00;3.05;;;21.00;42.90;;;;;;10452585;28;20862;-27
2021/01/31 17:16:47;;;;;;;3.00;2.63;;;21.00;42.30;;;;;;10445901;28;20217;-27
2021/01/31 17:22:09;;;;;;;3.07;2.77;;;21.00;42.50;;;;;;10448888;28;20203;-27
2021/01/31 17:27:31;;;;;;;3.70;2.60;;;21.00;42.60;;;;;;10410715;28;20561;-28
2021/01/31 17:32:53;;;;;;;3.60;3.17;;;21.00;42.70;;;;;;10445455;28;20431;-28
2021/01/31 17:38:15;;;;;;;4.00;3.07;;;21.00;42.80;;;;;;10410321;28;20229;-28
2021/01/31 17:43:38;;;;;;;3.30;3.00;;;21.10;42.50;;;;;;10429294;28;20606;-29
2021/01/31 17:48:59;;;;;;;2.87;2.57;;;21.10;42.40;;;;;;10452398;28;20243;-28
2021/01/31 17:54:21;;;;;;;3.43;2.97;;;21.20;42.40;;;;;;10451529;28;20619;-28
2021/01/31 17:59:43;;;;;;;3.30;2.90;;;21.20;42.30;;;;;;10434607;28;20304;-28
2021/01/31 18:05:06;;;;;;;3.67;3.00;;;21.20;42.40;;;;;;10446060;28;20228;-28
2021/01/31 18:10:28;;;;;;;3.63;3.10;;;21.20;42.50;;;;;;10444414;28;20186;-28
2021/01/31 18:15:50;;;;;;;3.07;2.60;;;21.20;42.50;;;;;;10436216;28;20228;-28
2021/01/31 18:21:12;;;;;;;3.33;2.90;;;21.20;42.60;;;;;;10442734;28;20193;-28
2021/01/31 18:26:34;;;;;;;4.67;2.70;;;21.20;42.60;;;;;;10447218;28;20214;-28
2021/01/31 18:31:56;;;;;;;3.27;2.83;;;21.30;42.70;;;;;;10439813;28;20197;-28
2021/01/31 18:37:18;;;;;;;4.00;2.80;;;21.00;43.30;;;;;;10442595;28;20228;-28
2021/01/31 18:42:40;;;;;;;2.97;2.53;;;20.80;43.70;;;;;;10438386;28;20205;-28
2021/01/31 18:48:04;;;;;;;4.50;3.37;;;20.80;43.60;;;;;;10440301;28;20217;-27
2021/01/31 18:53:25;;;;;;;3.77;3.00;;;20.70;43.60;;;;;;10443048;28;20200;-29
2021/01/31 18:58:47;;;;;;;4.53;3.30;;;20.70;43.70;;;;;;10442395;28;20765;-28
2021/01/31 19:04:10;;;;;;;3.47;3.17;;;20.70;43.60;;;;;;10445041;28;20224;-27
2021/01/31 19:09:31;;;;;;;4.03;2.80;;;20.70;43.80;;;;;;10443499;28;20193;-28
2021/01/31 19:14:53;;;;;;;3.07;2.80;;;20.70;43.70;;;;;;10449716;28;20274;-28
2021/01/31 19:20:19;;;;;;;4.50;2.80;;;20.70;44.00;;;;;;10454321;28;20638;-27
2021/01/31 19:25:40;;;;;;;3.63;2.77;;;20.70;44.40;;;;;;10454569;28;20592;-29
2021/01/31 19:31:02;;;;;;;3.00;2.70;;;20.70;44.00;;;;;;10453946;28;20200;-27
2021/01/31 19:36:24;;;;;;;4.37;2.87;;;20.60;44.00;;;;;;10432144;28;20696;-28
2021/01/31 19:41:47;;;;;;;3.07;2.77;;;20.60;43.90;;;;;;10414768;28;20665;-28
2021/01/31 19:47:09;;;;;;;4.47;3.42;;;20.60;44.00;;;;;;10427969;28;20769;-28
2021/01/31 19:52:31;;;;;;;3.40;2.80;;;20.60;43.90;;;;;;10455551;28;20568;-28
2021/01/31 19:57:53;;;;;;;3.73;2.73;;;20.60;43.80;;;;;;10453402;28;20263;-28
2021/01/31 20:03:15;;;;;;;3.63;2.67;;;20.60;43.90;;;;;;10453552;28;20211;-28
2021/01/31 20:08:38;;;;;;;3.80;2.40;;;20.60;43.90;;;;;;10454784;28;20200;-28
2021/01/31 20:13:59;;;;;;;2.83;2.57;;;20.70;43.90;;;;;;10452144;28;20225;-27
2021/01/31 20:19:21;;;;;;;3.40;2.93;;;20.60;44.00;;;;;;10453012;28;20773;-28
2021/01/31 20:24:43;;;;;;;3.73;3.03;;;20.50;44.20;;;;;;10453785;28;20217;-27
2021/01/31 20:30:07;;;;;;;3.20;2.80;;;20.60;44.00;;;;;;10416510;28;20197;-28
2021/01/31 20:35:29;;;;;;;4.10;2.80;;;20.60;43.90;;;;;;10431685;28;20223;-27
2021/01/31 20:40:52;;;;;;;3.30;2.87;;;20.60;43.90;;;;;;10433330;28;20185;-28
2021/01/31 20:46:13;;;;;;;3.03;2.73;;;20.60;43.90;;;;;;10435298;28;20217;-28
2021/01/31 20:51:35;;;;;;;3.80;3.20;;;20.60;43.90;;;;;;10434262;28;20189;-28
2021/01/31 20:56:58;;;;;;;3.20;2.67;;;20.60;43.70;;;;;;10427430;28;20304;-28
2021/01/31 21:02:19;;;;;;;3.00;2.70;;;20.60;43.80;;;;;;10432190;28;20250;-28
2021/01/31 21:07:41;;;;;;;3.20;2.80;;;20.60;43.70;;;;;;10437869;28;20217;-28
2021/01/31 21:13:04;;;;;;;3.83;3.30;;;20.60;43.70;;;;;;10431679;28;20189;-28
2021/01/31 21:18:25;;;;;;;2.77;2.50;;;20.60;43.70;;;;;;10429042;28;20259;-27
2021/01/31 21:23:47;;;;;;;2.97;2.60;;;20.60;43.60;;;;;;10431719;28;20234;-27
2021/01/31 21:29:10;;;;;;;2.60;2.40;;;20.60;43.70;;;;;;10419046;28;20196;-28
2021/01/31 21:34:32;;;;;;;3.23;2.73;;;20.50;44.10;;;;;;10414939;28;20220;-28
2021/01/31 21:39:54;;;;;;;2.80;2.37;;;20.40;44.10;;;;;;10410864;28;20243;-28
2021/01/31 21:45:18;;;;;;;3.27;2.97;;;20.30;44.20;;;;;;10409863;28;20217;-28
2021/01/31 21:50:40;;;;;;;2.77;2.50;;;20.20;44.20;;;;;;10409188;28;20200;-28
2021/01/31 21:56:01;;;;;;;3.40;3.07;;;20.20;44.30;;;;;;10410144;28;20590;-28
2021/01/31 22:01:25;;;;;;;2.97;2.67;;;20.10;44.40;;;;;;10421111;28;20200;-28
2021/01/31 22:06:47;;;;;;;3.00;2.70;;;20.10;44.20;;;;;;10449723;28;20266;-27
2021/01/31 22:12:09;;;;;;;3.20;2.80;;;20.10;44.20;;;;;;10449993;28;20572;-28
2021/01/31 22:17:31;;;;;;;4.50;3.10;;;20.00;44.30;;;;;;10449547;28;20225;-28
2021/01/31 22:22:53;;;;;;;3.20;2.90;;;20.00;44.40;;;;;;10449095;28;20276;-27
2021/01/31 22:28:15;;;;;;;3.00;2.73;;;20.00;44.30;;;;;;10447807;28;20231;-28
2021/01/31 22:33:38;;;;;;;3.07;2.77;;;20.00;44.40;;;;;;10448562;28;20687;-28
2021/01/31 22:39:00;;;;;;;2.60;2.40;;;20.00;44.30;;;;;;10445285;28;20225;-28
2021/01/31 22:44:21;;;;;;;3.40;2.70;;;19.90;44.40;;;;;;10446993;28;20294;-28
2021/01/31 22:49:45;;;;;;;2.63;2.43;;;20.00;44.40;;;;;;10457123;28;20247;-28
2021/01/31 22:55:08;;;;;;;3.03;2.77;;;19.90;44.20;;;;;;10456999;28;20220;-28
2021/01/31 23:00:31;;;;;;;2.63;2.43;;;19.90;44.20;;;;;;10450597;28;20225;-28
2021/01/31 23:05:54;;;;;;;3.20;2.70;;;19.90;44.30;;;;;;10451777;28;20275;-27
2021/01/31 23:11:16;;;;;;;3.00;2.70;;;19.80;44.30;;;;;;10456622;28;20197;-29
2021/01/31 23:16:37;;;;;;;3.20;2.50;;;19.80;44.50;;;;;;10455429;28;20228;-29
2021/01/31 23:22:00;;;;;;;2.90;2.60;;;19.80;44.50;;;;;;10455402;28;20193;-27
2021/01/31 23:27:21;;;;;;;4.90;2.77;;;19.80;44.40;;;;;;10455478;28;20213;-30
2021/01/31 23:32:43;;;;;;;3.40;2.83;;;19.70;44.40;;;;;;10454697;28;20246;-28
2021/01/31 23:38:06;;;;;;;3.23;2.93;;;19.70;44.40;;;;;;10456125;28;20232;-29
2021/01/31 23:43:28;;;;;;;3.07;2.77;;;19.70;44.40;;;;;;10456225;28;20204;-28
2021/01/31 23:48:50;;;;;;;3.07;2.77;;;19.70;44.40;;;;;;10456752;28;20193;-27
2021/01/31 23:54:12;;;;;;;2.97;2.60;;;19.70;44.40;;;;;;10454861;28;20227;-28
2021/01/31 23:59:34;;;;;;;2.90;2.70;;;19.70;44.30;;;;;;10455098;28;20270;-28
